TimeEDT,TemperatureF,Dew PointF,Humidity,Sea Level PressureIn,VisibilityMPH,Wind Direction,Wind SpeedMPH,Gust SpeedMPH,PrecipitationIn,Events,Conditions,WindDirDegrees,DateUTC
12:53 AM,73.9,69.1,85,29.87,10.0,SSW,8.1,-,N/A,,Clear,200,2012-09-06 04:53:00
1:53 AM,73.9,69.1,85,29.86,10.0,South,8.1,-,N/A,,Mostly Cloudy,180,2012-09-06 05:53:00
2:53 AM,73.0,69.1,87,29.85,9.0,South,4.6,-,N/A,,Partly Cloudy,180,2012-09-06 06:53:00
3:53 AM,72.0,69.1,91,29.85,7.0,Calm,Calm,-,N/A,,Scattered Clouds,0,2012-09-06 07:53:00
4:53 AM,72.0,69.1,91,29.85,7.0,SSW,3.5,-,N/A,,Scattered Clouds,200,2012-09-06 08:53:00
5:53 AM,72.0,69.1,91,29.85,6.0,Calm,Calm,-,N/A,,Mostly Cloudy,0,2012-09-06 09:53:00
6:53 AM,71.1,69.1,93,29.87,4.0,Calm,Calm,-,0.00,,Mostly Cloudy,0,2012-09-06 10:53:00
7:53 AM,72.0,70.0,93,29.90,4.0,Calm,Calm,-,N/A,,Mostly Cloudy,0,2012-09-06 11:53:00
8:19 AM,73.4,69.8,88,29.97,6.0,Calm,Calm,-,N/A,,Overcast,0,2012-09-06 12:19:00
8:28 AM,73.4,69.8,88,29.96,6.0,Calm,Calm,-,N/A,,Overcast,0,2012-09-06 12:28:00
8:53 AM,75.0,71.1,87,29.90,8.0,Variable,3.5,-,N/A,,Mostly Cloudy,0,2012-09-06 12:53:00
9:33 AM,75.2,71.6,89,29.97,9.0,Calm,Calm,-,N/A,,Mostly Cloudy,0,2012-09-06 13:33:00
9:40 AM,75.2,69.8,83,29.97,9.0,Calm,Calm,-,N/A,,Overcast,0,2012-09-06 13:40:00
9:48 AM,75.2,69.8,83,29.97,9.0,Calm,Calm,-,N/A,,Mostly Cloudy,0,2012-09-06 13:48:00
9:49 AM,75.9,71.1,85,29.91,9.0,Calm,Calm,-,N/A,,Mostly Cloudy,0,2012-09-06 13:49:00
10:53 AM,78.1,70.0,76,29.92,10.0,Calm,Calm,-,N/A,,Partly Cloudy,0,2012-09-06 14:53:00
11:53 AM,79.0,71.1,77,29.93,10.0,Calm,Calm,-,N/A,,Scattered Clouds,0,2012-09-06 15:53:00
12:53 PM,79.0,69.1,72,29.92,10.0,West,3.5,-,0.00,,Partly Cloudy,270,2012-09-06 16:53:00
1:53 PM,81.0,69.1,67,29.91,10.0,North,5.8,-,N/A,,Clear,350,2012-09-06 17:53:00
2:53 PM,84.0,69.1,61,29.89,10.0,Variable,3.5,-,N/A,,Partly Cloudy,0,2012-09-06 18:53:00
3:53 PM,84.9,66.9,55,29.87,10.0,Variable,6.9,-,N/A,,Partly Cloudy,0,2012-09-06 19:53:00
4:53 PM,84.9,64.9,51,29.86,10.0,WNW,5.8,-,N/A,,Partly Cloudy,290,2012-09-06 20:53:00
5:53 PM,86.0,66.0,51,29.85,10.0,Variable,3.5,-,N/A,,Mostly Cloudy,0,2012-09-06 21:53:00
6:53 PM,84.0,66.0,55,29.86,10.0,Calm,Calm,-,N/A,,Partly Cloudy,0,2012-09-06 22:53:00
7:53 PM,80.1,70.0,71,29.88,10.0,Calm,Calm,-,N/A,,Overcast,0,2012-09-06 23:53:00
8:53 PM,79.0,68.0,69,29.90,10.0,ENE,13.8,-,N/A,,Overcast,60,2012-09-07 00:53:00
9:16 PM,75.2,68.0,78,29.98,10.0,East,3.5,-,0.01,Rain-Thunderstorm,Light Thunderstorms and Rain,90,2012-09-07 01:16:00
9:31 PM,73.4,68.0,83,29.98,10.0,North,3.5,-,0.01,Thunderstorm,Scattered Clouds,360,2012-09-07 01:31:00
9:53 PM,73.0,68.0,84,29.93,10.0,Calm,Calm,-,0.01,Thunderstorm,Partly Cloudy,0,2012-09-07 01:53:00
10:08 PM,73.4,68.0,83,29.99,10.0,Calm,Calm,-,N/A,,Mostly Cloudy,0,2012-09-07 02:08:00
10:53 PM,72.0,69.1,91,29.93,10.0,Calm,Calm,-,N/A,,Mostly Cloudy,0,2012-09-07 02:53:00
11:53 PM,71.1,68.0,90,29.93,10.0,North,4.6,-,N/A,,Partly Cloudy,350,2012-09-07 03:53:00